Time;durP1;ratioP1;P1;durP2;ratioP2;P2;SDS_P1;SDS_P2;PMS_P1;PMS_P2;Temp;Humidity;BMP_temperature;BMP_pressure;BME280_temperature;BME280_humidity;BME280_pressure;Samples;Min_cycle;Max_cycle;Signal;HPM_P1;HPM_P2
2022/11/06 00:00:20;;;;;;;;;;;15.20;61.90;;;;;;5092973;28;19929;-65
2022/11/06 00:02:45;;;;;;;;;;;15.20;62.00;;;;;;5093340;28;20248;-64
2022/11/06 00:07:57;;;;;;;;;;;15.20;61.90;;;;;;5091808;28;20295;-64
2022/11/06 00:10:22;;;;;;;;;;;15.30;62.00;;;;;;5091751;28;19927;-64
2022/11/06 00:12:48;;;;;;;;;;;15.20;61.90;;;;;;5091921;28;19920;-64
2022/11/06 00:15:14;;;;;;;;;;;15.10;62.10;;;;;;5091804;28;20473;-64
2022/11/06 00:17:39;;;;;;;;;;;15.20;61.90;;;;;;5091345;28;19924;-64
2022/11/06 00:20:06;;;;;;;;;;;15.20;61.90;;;;;;5091382;28;19927;-64
2022/11/06 00:22:32;;;;;;;;;;;15.20;61.90;;;;;;5091771;28;20521;-64
2022/11/06 00:24:58;;;;;;;;;;;15.10;61.90;;;;;;5091219;28;19931;-65
2022/11/06 00:27:23;;;;;;;;;;;15.10;62.00;;;;;;5092710;28;20364;-64
2022/11/06 00:29:49;;;;;;;;;;;15.20;62.00;;;;;;5092545;28;20019;-64
2022/11/06 00:32:14;;;;;;;;;;;15.10;61.90;;;;;;5091216;28;19920;-66
2022/11/06 00:34:40;;;;;;;;;;;15.20;62.00;;;;;;5091495;28;19920;-64
2022/11/06 00:37:06;;;;;;;;;;;15.10;62.00;;;;;;5091254;28;20341;-64
2022/11/06 00:39:31;;;;;;;;;;;15.10;61.90;;;;;;5091796;28;19927;-64
2022/11/06 00:41:57;;;;;;;;;;;15.10;62.80;;;;;;5091405;28;20291;-64
2022/11/06 00:44:22;;;;;;;;;;;15.10;62.00;;;;;;5094141;28;19954;-67
2022/11/06 00:46:47;;;;;;;;;;;15.10;61.90;;;;;;5094375;28;19924;-64
2022/11/06 00:49:13;;;;;;;;;;;15.10;62.00;;;;;;5112624;28;19923;-65
2022/11/06 00:51:39;;;;;;;;;;;15.10;62.00;;;;;;5128813;28;19919;-64
2022/11/06 00:54:06;;;;;;;;;;;15.10;62.00;;;;;;5112916;28;19927;-64
2022/11/06 00:56:32;;;;;;;;;;;15.10;62.00;;;;;;5112698;28;19920;-66
2022/11/06 00:58:58;;;;;;;;;;;15.10;62.10;;;;;;5094524;28;20334;-64
2022/11/06 01:01:25;;;;;;;;;;;15.10;62.00;;;;;;5094354;28;19932;-64
2022/11/06 01:03:52;;;;;;;;;;;15.10;62.10;;;;;;5112417;28;20290;-66
2022/11/06 01:06:19;;;;;;;;;;;15.10;62.10;;;;;;5115673;28;19931;-64
2022/11/06 01:08:45;;;;;;;;;;;15.10;62.10;;;;;;5098446;28;19919;-64
2022/11/06 01:11:13;;;;;;;;;;;15.10;62.10;;;;;;5116718;28;19920;-65
2022/11/06 01:13:39;;;;;;;;;;;15.10;62.00;;;;;;5098618;28;20291;-65
2022/11/06 01:16:06;;;;;;;;;;;15.10;62.10;;;;;;5097871;28;19920;-65
2022/11/06 01:18:31;;;;;;;;;;;15.10;62.10;;;;;;5116435;28;20011;-65
2022/11/06 01:20:57;;;;;;;;;;;15.10;62.10;;;;;;5098121;28;20022;-65
2022/11/06 01:23:23;;;;;;;;;;;15.10;62.10;;;;;;5098306;28;19967;-65
2022/11/06 01:26:05;;;;;;;;;;;15.10;62.10;;;;;;5098076;28;19923;-65
2022/11/06 01:28:31;;;;;;;;;;;15.10;62.10;;;;;;5098334;28;20004;-66
2022/11/06 01:31:02;;;;;;;;;;;15.10;62.20;;;;;;5097940;28;20366;-65
2022/11/06 01:33:28;;;;;;;;;;;15.00;62.10;;;;;;5098233;28;19927;-65
2022/11/06 01:35:53;;;;;;;;;;;15.10;62.10;;;;;;5098313;28;19919;-66
2022/11/06 01:38:19;;;;;;;;;;;15.10;62.10;;;;;;5116100;28;20381;-65
2022/11/06 01:40:45;;;;;;;;;;;15.10;62.20;;;;;;5098123;28;20275;-65
2022/11/06 01:43:14;;;;;;;;;;;15.00;62.10;;;;;;5097618;28;19919;-65
2022/11/06 01:45:41;;;;;;;;;;;15.10;62.20;;;;;;5102623;28;20321;-65
2022/11/06 01:48:07;;;;;;;;;;;15.10;62.20;;;;;;5095684;28;19923;-65
2022/11/06 01:50:33;;;;;;;;;;;15.00;62.20;;;;;;5095707;28;19942;-66
2022/11/06 01:52:59;;;;;;;;;;;15.10;62.20;;;;;;5095363;28;20379;-65
2022/11/06 01:55:29;;;;;;;;;;;15.10;62.20;;;;;;5077503;28;19920;-65
2022/11/06 01:57:56;;;;;;;;;;;15.10;62.30;;;;;;5095303;28;19927;-65
2022/11/06 02:00:21;;;;;;;;;;;15.00;62.20;;;;;;5077369;28;19920;-65
2022/11/06 02:02:47;;;;;;;;;;;15.10;62.20;;;;;;5094826;28;20425;-65
2022/11/06 02:05:13;;;;;;;;;;;15.00;62.20;;;;;;5095121;28;20481;-65
2022/11/06 02:07:39;;;;;;;;;;;15.00;62.20;;;;;;5060499;28;19920;-65
2022/11/06 02:10:05;;;;;;;;;;;15.00;62.20;;;;;;5095128;28;20009;-65
2022/11/06 02:20:50;;;;;;;;;;;15.00;62.20;;;;;;5089944;28;19913;-65
2022/11/06 02:28:38;;;;;;;;;;;14.90;62.30;;;;;;5089884;28;19912;-65
2022/11/06 02:31:07;;;;;;;;;;;15.00;62.30;;;;;;5071999;28;19921;-65
2022/11/06 02:33:33;;;;;;;;;;;15.00;62.30;;;;;;5088479;28;19927;-65
2022/11/06 02:36:01;;;;;;;;;;;15.00;62.30;;;;;;5105706;28;20031;-65
2022/11/06 02:38:30;;;;;;;;;;;15.00;62.30;;;;;;5071861;28;20233;-65
2022/11/06 02:40:57;;;;;;;;;;;15.00;62.40;;;;;;5088385;28;19920;-65
2022/11/06 02:43:34;;;;;;;;;;;15.00;62.40;;;;;;5087804;28;19967;-65
2022/11/06 02:46:04;;;;;;;;;;;15.00;62.40;;;;;;5088832;28;19925;-65
2022/11/06 02:48:33;;;;;;;;;;;15.00;62.40;;;;;;5089499;28;19924;-65
2022/11/06 02:51:01;;;;;;;;;;;15.00;62.40;;;;;;5088199;28;19926;-65
2022/11/06 02:53:26;;;;;;;;;;;15.00;62.40;;;;;;5089498;28;19964;-65
2022/11/06 02:55:55;;;;;;;;;;;15.00;62.40;;;;;;5088093;28;19979;-65
2022/11/06 02:58:24;;;;;;;;;;;15.00;62.40;;;;;;5088113;28;19977;-65
2022/11/06 03:00:53;;;;;;;;;;;15.00;62.40;;;;;;5088246;28;19969;-65
2022/11/06 03:03:22;;;;;;;;;;;15.00;62.40;;;;;;5087837;28;19973;-65
2022/11/06 03:06:08;;;;;;;;;;;15.00;62.50;;;;;;5087851;28;19927;-65
2022/11/06 03:08:37;;;;;;;;;;;15.00;62.50;;;;;;5087714;28;20237;-65
2022/11/06 03:16:57;;;;;;;;;;;15.00;62.50;;;;;;5089957;28;19919;-65
2022/11/06 03:22:07;;;;;;;;;;;14.90;62.50;;;;;;5110175;27;19912;-65
2022/11/06 03:24:36;;;;;;;;;;;15.10;62.60;;;;;;5091039;28;19931;-65
2022/11/06 03:27:06;;;;;;;;;;;14.90;62.40;;;;;;5108754;28;19928;-65
2022/11/06 03:29:40;;;;;;;;;;;14.90;62.40;;;;;;5109173;28;19995;-65
2022/11/06 03:34:58;;;;;;;;;;;14.90;62.50;;;;;;5110155;27;19912;-65
2022/11/06 03:37:28;;;;;;;;;;;14.90;62.50;;;;;;5110152;28;20207;-65
2022/11/06 03:39:56;;;;;;;;;;;14.90;62.50;;;;;;5109222;28;19927;-65
2022/11/06 03:42:24;;;;;;;;;;;14.90;62.50;;;;;;5109124;28;20326;-65
2022/11/06 03:44:53;;;;;;;;;;;14.90;62.50;;;;;;5108749;28;20399;-65
2022/11/06 03:47:21;;;;;;;;;;;14.90;62.50;;;;;;5143058;27;19920;-65
2022/11/06 03:49:49;;;;;;;;;;;14.90;62.50;;;;;;5108679;28;19924;-65
2022/11/06 03:52:18;;;;;;;;;;;14.90;62.50;;;;;;5108904;28;19924;-65
2022/11/06 03:54:48;;;;;;;;;;;14.90;62.60;;;;;;5108557;28;19932;-66
2022/11/06 03:57:20;;;;;;;;;;;14.90;62.50;;;;;;5108811;28;19920;-66
2022/11/06 03:59:48;;;;;;;;;;;14.90;62.60;;;;;;5108649;28;20128;-66
2022/11/06 04:02:15;;;;;;;;;;;14.90;62.50;;;;;;5109446;28;20477;-65
2022/11/06 04:04:44;;;;;;;;;;;14.90;62.60;;;;;;5108516;28;19927;-65
2022/11/06 04:07:12;;;;;;;;;;;14.90;62.60;;;;;;5108624;28;20028;-65
2022/11/06 04:15:13;;;;;;;;;;;14.90;62.60;;;;;;5108074;28;19920;-65
2022/11/06 04:17:39;;;;;;;;;;;14.90;62.60;;;;;;5109443;28;20279;-65
2022/11/06 04:20:08;;;;;;;;;;;14.90;62.60;;;;;;5109408;28;19920;-65
2022/11/06 04:31:01;;;;;;;;;;;14.90;62.60;;;;;;5128427;27;1841498;-65
2022/11/06 04:33:46;;;;;;;;;;;14.90;62.70;;;;;;5174113;27;19922;-65
2022/11/06 04:36:19;;;;;;;;;;;14.90;62.70;;;;;;5174564;27;19922;-65
2022/11/06 04:41:52;;;;;;;;;;;14.90;62.70;;;;;;5110228;27;19912;-65
2022/11/06 04:44:23;;;;;;;;;;;14.90;62.70;;;;;;5108512;28;19962;-65
2022/11/06 04:46:52;;;;;;;;;;;14.90;62.70;;;;;;5108837;28;19920;-65
2022/11/06 04:49:19;;;;;;;;;;;14.90;62.70;;;;;;5108761;28;19923;-65
2022/11/06 04:51:45;;;;;;;;;;;14.90;62.70;;;;;;5109120;28;19926;-65
2022/11/06 04:54:11;;;;;;;;;;;14.90;62.70;;;;;;5108664;28;19927;-65
2022/11/06 04:56:37;;;;;;;;;;;14.90;63.50;;;;;;5109014;28;20031;-65
2022/11/06 04:59:03;;;;;;;;;;;14.90;62.80;;;;;;5108395;28;19973;-65
2022/11/06 05:01:29;;;;;;;;;;;14.90;62.80;;;;;;5109098;28;19920;-65
2022/11/06 05:03:54;;;;;;;;;;;14.80;62.80;;;;;;5109702;28;20340;-66
2022/11/06 05:06:20;;;;;;;;;;;14.80;62.70;;;;;;5109104;28;19920;-65
2022/11/06 05:08:45;;;;;;;;;;;14.80;62.80;;;;;;5108727;28;20279;-65
2022/11/06 05:11:11;;;;;;;;;;;14.80;62.70;;;;;;5108450;28;19927;-65
2022/11/06 05:13:37;;;;;;;;;;;14.70;62.70;;;;;;5108307;28;19920;-65
2022/11/06 05:16:02;;;;;;;;;;;14.90;62.90;;;;;;5109845;28;20399;-65
2022/11/06 05:18:28;;;;;;;;;;;14.80;62.80;;;;;;5108477;28;19920;-65
2022/11/06 05:22:56;;;;;;;;;;;14.80;62.80;;;;;;5108282;28;20525;-65
2022/11/06 05:23:39;;;;;;;;;;;14.90;62.90;;;;;;5107912;28;19920;-65
2022/11/06 05:26:05;;;;;;;;;;;14.80;62.90;;;;;;5108144;28;20022;-65
2022/11/06 05:28:31;;;;;;;;;;;14.80;62.90;;;;;;5108095;28;20372;-65
2022/11/06 05:30:56;;;;;;;;;;;14.80;62.90;;;;;;5109425;28;19927;-65
2022/11/06 05:33:22;;;;;;;;;;;14.80;62.80;;;;;;5108023;28;20414;-65
2022/11/06 05:35:48;;;;;;;;;;;14.80;62.80;;;;;;5107525;28;19966;-65
2022/11/06 05:38:14;;;;;;;;;;;14.80;62.90;;;;;;5109001;28;19950;-65
2022/11/06 05:40:39;;;;;;;;;;;14.80;62.90;;;;;;5107539;28;19924;-65
2022/11/06 05:43:05;;;;;;;;;;;14.80;62.90;;;;;;5108960;28;19973;-66
2022/11/06 05:45:30;;;;;;;;;;;14.80;62.90;;;;;;5108974;28;19920;-66
2022/11/06 05:47:56;;;;;;;;;;;14.80;62.90;;;;;;5108022;28;19982;-65
2022/11/06 05:50:21;;;;;;;;;;;14.80;62.90;;;;;;5108951;28;19920;-65
2022/11/06 05:52:47;;;;;;;;;;;14.80;62.90;;;;;;5094551;28;19921;-65
2022/11/06 05:55:12;;;;;;;;;;;14.80;63.00;;;;;;5094467;28;19920;-65
2022/11/06 05:57:38;;;;;;;;;;;14.70;62.90;;;;;;5095223;28;19920;-65
2022/11/06 06:00:05;;;;;;;;;;;14.80;63.00;;;;;;5093779;28;19950;-65
2022/11/06 06:02:30;;;;;;;;;;;14.80;63.00;;;;;;5095090;28;19941;-65
2022/11/06 06:04:55;;;;;;;;;;;14.80;63.00;;;;;;5094962;28;20418;-65
2022/11/06 06:07:21;;;;;;;;;;;14.80;63.00;;;;;;5093795;28;19998;-65
2022/11/06 06:09:47;;;;;;;;;;;14.80;63.00;;;;;;5094061;28;19920;-65
2022/11/06 06:12:12;;;;;;;;;;;14.80;63.00;;;;;;5093686;28;19920;-65
2022/11/06 06:14:38;;;;;;;;;;;14.80;62.90;;;;;;5093578;28;19969;-65
2022/11/06 06:17:03;;;;;;;;;;;14.80;63.00;;;;;;5094834;28;20045;-65
2022/11/06 06:19:29;;;;;;;;;;;14.80;63.00;;;;;;5093740;28;20019;-65
2022/11/06 06:21:55;;;;;;;;;;;14.80;63.00;;;;;;5093431;28;20353;-65
2022/11/06 06:24:20;;;;;;;;;;;14.80;63.00;;;;;;5093777;28;19948;-65
2022/11/06 06:26:46;;;;;;;;;;;14.80;63.00;;;;;;5094669;28;19920;-65
2022/11/06 06:29:11;;;;;;;;;;;14.80;63.00;;;;;;5093746;28;19920;-66
2022/11/06 06:31:37;;;;;;;;;;;14.80;63.00;;;;;;5094771;28;19943;-65
2022/11/06 06:34:02;;;;;;;;;;;14.80;63.00;;;;;;5094650;28;19924;-65
2022/11/06 06:36:28;;;;;;;;;;;14.80;63.00;;;;;;5093223;28;19927;-65
2022/11/06 06:38:53;;;;;;;;;;;14.80;63.00;;;;;;5093730;28;20262;-65
2022/11/06 06:41:19;;;;;;;;;;;14.70;63.80;;;;;;5092374;28;19925;-65
2022/11/06 06:43:46;;;;;;;;;;;14.70;63.00;;;;;;5094251;28;19924;-65
2022/11/06 06:46:11;;;;;;;;;;;14.80;63.00;;;;;;5093358;28;20011;-65
2022/11/06 06:48:37;;;;;;;;;;;14.80;63.00;;;;;;5092968;28;20019;-65
2022/11/06 06:51:03;;;;;;;;;;;14.80;63.00;;;;;;5093162;28;19962;-65
2022/11/06 06:53:29;;;;;;;;;;;14.80;63.00;;;;;;5094264;28;19977;-65
2022/11/06 06:55:57;;;;;;;;;;;14.80;63.00;;;;;;5094291;28;20014;-65
2022/11/06 06:58:22;;;;;;;;;;;14.80;63.10;;;;;;5092695;28;20379;-65
2022/11/06 07:00:48;;;;;;;;;;;14.60;63.00;;;;;;5092647;28;19924;-65
2022/11/06 07:03:13;;;;;;;;;;;14.80;63.00;;;;;;5091828;28;19920;-65
2022/11/06 07:05:39;;;;;;;;;;;14.80;63.00;;;;;;5093901;28;19920;-66
2022/11/06 07:08:05;;;;;;;;;;;14.80;63.10;;;;;;5092891;28;19977;-65
2022/11/06 07:10:30;;;;;;;;;;;14.80;63.10;;;;;;5094211;28;19924;-65
2022/11/06 07:12:59;;;;;;;;;;;14.70;63.10;;;;;;5092497;28;20448;-65
2022/11/06 07:15:24;;;;;;;;;;;14.80;63.10;;;;;;5092654;28;19924;-65
2022/11/06 07:17:50;;;;;;;;;;;14.80;63.00;;;;;;5092609;28;19920;-65
2022/11/06 07:20:16;;;;;;;;;;;14.80;63.10;;;;;;5092279;28;20376;-65
2022/11/06 07:22:41;;;;;;;;;;;14.80;63.10;;;;;;5092596;28;19946;-65
2022/11/06 07:25:07;;;;;;;;;;;14.70;63.10;;;;;;5094138;28;20287;-66
2022/11/06 07:27:32;;;;;;;;;;;14.70;63.10;;;;;;5093412;28;20383;-66
2022/11/06 07:29:59;;;;;;;;;;;14.80;63.10;;;;;;5092716;28;19924;-65
2022/11/06 07:32:25;;;;;;;;;;;14.70;63.10;;;;;;5092400;28;19977;-65
2022/11/06 07:34:50;;;;;;;;;;;14.80;63.10;;;;;;5092034;28;20378;-65
2022/11/06 07:37:16;;;;;;;;;;;14.70;63.10;;;;;;5092372;28;19920;-66
2022/11/06 07:39:41;;;;;;;;;;;14.70;63.10;;;;;;5091921;28;20372;-65
2022/11/06 07:42:07;;;;;;;;;;;14.70;63.10;;;;;;5093101;28;19927;-65
2022/11/06 07:44:32;;;;;;;;;;;14.70;63.10;;;;;;5092080;28;19920;-65
2022/11/06 07:46:58;;;;;;;;;;;14.70;63.00;;;;;;5093539;28;19928;-65
2022/11/06 07:49:23;;;;;;;;;;;14.70;63.10;;;;;;5092188;28;20253;-64
2022/11/06 07:51:49;;;;;;;;;;;14.80;63.10;;;;;;5093054;28;20386;-64
2022/11/06 07:54:14;;;;;;;;;;;14.80;63.10;;;;;;5091642;28;19924;-65
2022/11/06 07:56:40;;;;;;;;;;;14.70;63.10;;;;;;5092133;28;19927;-65
2022/11/06 07:59:05;;;;;;;;;;;14.70;63.00;;;;;;5092073;28;20423;-65
2022/11/06 08:01:31;;;;;;;;;;;14.80;63.10;;;;;;5091419;28;19924;-65
2022/11/06 08:03:56;;;;;;;;;;;14.70;63.00;;;;;;5091456;28;20018;-64
2022/11/06 08:06:22;;;;;;;;;;;14.70;63.00;;;;;;5092774;28;20003;-65
2022/11/06 08:08:48;;;;;;;;;;;14.80;63.10;;;;;;5091761;28;20007;-65
2022/11/06 08:11:13;;;;;;;;;;;14.80;63.10;;;;;;5091427;28;19927;-65
2022/11/06 08:13:39;;;;;;;;;;;14.80;63.10;;;;;;5091827;28;19920;-65
2022/11/06 08:16:07;;;;;;;;;;;14.70;63.80;;;;;;5091128;28;19924;-65
2022/11/06 08:18:33;;;;;;;;;;;14.70;63.00;;;;;;5092558;28;19993;-65
2022/11/06 08:20:59;;;;;;;;;;;14.80;63.00;;;;;;5092657;28;19924;-65
2022/11/06 08:23:24;;;;;;;;;;;14.70;63.00;;;;;;5092716;28;19977;-65
2022/11/06 08:25:54;;;;;;;;;;;14.70;63.00;;;;;;5091221;28;20403;-64
2022/11/06 08:28:20;;;;;;;;;;;14.70;63.10;;;;;;5092599;28;19927;-65
2022/11/06 08:30:45;;;;;;;;;;;14.80;63.10;;;;;;5092455;28;19920;-65
2022/11/06 08:33:11;;;;;;;;;;;14.80;63.10;;;;;;5091117;28;19927;-64
2022/11/06 08:35:37;;;;;;;;;;;14.80;63.10;;;;;;5092438;28;19987;-65
2022/11/06 08:38:02;;;;;;;;;;;14.80;63.10;;;;;;5092454;28;19920;-65
2022/11/06 08:40:28;;;;;;;;;;;14.80;63.10;;;;;;5090776;28;19939;-65
2022/11/06 08:42:57;;;;;;;;;;;14.70;63.10;;;;;;5091092;28;19920;-64
2022/11/06 08:45:23;;;;;;;;;;;14.70;63.10;;;;;;5091064;28;19927;-64
2022/11/06 08:47:48;;;;;;;;;;;14.70;63.10;;;;;;5091107;28;19920;-65
2022/11/06 08:50:14;;;;;;;;;;;14.80;63.00;;;;;;5091353;28;19920;-65
2022/11/06 08:52:40;;;;;;;;;;;14.70;63.10;;;;;;5092566;28;19924;-65
2022/11/06 08:55:05;;;;;;;;;;;14.80;63.20;;;;;;5092486;28;20421;-65
2022/11/06 08:57:31;;;;;;;;;;;14.70;63.00;;;;;;5090905;28;19959;-65
2022/11/06 08:59:56;;;;;;;;;;;14.70;63.10;;;;;;5091074;28;19924;-64
2022/11/06 09:02:22;;;;;;;;;;;14.70;63.10;;;;;;5090158;28;20409;-65
2022/11/06 09:04:47;;;;;;;;;;;14.70;63.00;;;;;;5091381;28;19920;-65
2022/11/06 09:07:14;;;;;;;;;;;14.70;63.00;;;;;;5090972;28;20379;-65
2022/11/06 09:09:39;;;;;;;;;;;14.80;63.10;;;;;;5092333;28;19960;-65
2022/11/06 09:12:05;;;;;;;;;;;14.80;63.10;;;;;;5091169;28;19967;-65
2022/11/06 09:14:32;;;;;;;;;;;14.80;63.10;;;;;;5090848;28;20026;-64
2022/11/06 09:16:57;;;;;;;;;;;14.80;63.10;;;;;;5092033;28;19920;-65
2022/11/06 09:19:23;;;;;;;;;;;14.80;63.10;;;;;;5090638;28;19927;-65
2022/11/06 09:21:48;;;;;;;;;;;14.80;63.10;;;;;;5090428;28;19920;-64
2022/11/06 09:24:14;;;;;;;;;;;14.80;63.00;;;;;;5091841;28;19958;-65
2022/11/06 09:26:39;;;;;;;;;;;14.70;63.00;;;;;;5092037;28;19920;-65
2022/11/06 09:29:05;;;;;;;;;;;14.80;63.10;;;;;;5094593;28;20003;-64
2022/11/06 09:31:31;;;;;;;;;;;14.80;63.10;;;;;;5095790;28;19919;-64
2022/11/06 09:33:57;;;;;;;;;;;14.80;63.00;;;;;;5093763;28;19920;-65
2022/11/06 09:36:22;;;;;;;;;;;14.70;63.00;;;;;;5077617;28;19928;-64
2022/11/06 09:38:48;;;;;;;;;;;14.80;63.10;;;;;;5094368;28;20084;-64
2022/11/06 09:41:18;;;;;;;;;;;14.80;63.10;;;;;;5113443;28;19924;-65
2022/11/06 09:43:49;;;;;;;;;;;14.80;63.10;;;;;;5098027;28;19942;-65
2022/11/06 09:52:01;;;;;;;;;;;14.80;63.10;;;;;;5109664;27;19912;-64
2022/11/06 09:54:29;;;;;;;;;;;14.80;63.10;;;;;;5108932;28;19924;-65
2022/11/06 09:56:59;;;;;;;;;;;14.80;63.10;;;;;;5109203;28;19920;-65
2022/11/06 09:59:25;;;;;;;;;;;14.80;63.10;;;;;;5109038;28;19993;-64
2022/11/06 10:01:53;;;;;;;;;;;14.80;63.10;;;;;;5109159;28;19920;-66
2022/11/06 10:04:22;;;;;;;;;;;14.80;63.10;;;;;;5108921;28;19939;-65
2022/11/06 10:06:48;;;;;;;;;;;14.80;63.20;;;;;;5109001;28;19920;-64
2022/11/06 10:09:16;;;;;;;;;;;14.80;63.10;;;;;;5108600;28;20404;-64
2022/11/06 10:17:36;;;;;;;;;;;14.80;63.10;;;;;;5125256;27;1935888;-65
2022/11/06 10:22:50;;;;;;;;;;;14.80;63.20;;;;;;5129505;27;1864649;-65
2022/11/06 10:25:18;;;;;;;;;;;14.80;63.20;;;;;;5174432;27;20009;-65
2022/11/06 10:30:33;;;;;;;;;;;14.80;63.20;;;;;;5110180;27;19912;-65
2022/11/06 10:33:18;;;;;;;;;;;14.80;63.20;;;;;;5109238;28;19919;-65
2022/11/06 10:35:48;;;;;;;;;;;14.80;63.20;;;;;;5108618;28;19970;-65
2022/11/06 10:38:16;;;;;;;;;;;14.80;63.20;;;;;;5109141;28;19927;-65
2022/11/06 10:40:42;;;;;;;;;;;14.80;63.30;;;;;;5108647;28;19927;-66
2022/11/06 10:45:53;;;;;;;;;;;14.80;63.30;;;;;;5089840;28;19918;-65
2022/11/06 10:48:21;;;;;;;;;;;14.80;63.30;;;;;;5088576;28;19920;-65
2022/11/06 10:50:52;;;;;;;;;;;14.80;63.30;;;;;;5088638;28;19966;-65
2022/11/06 10:53:23;;;;;;;;;;;14.80;63.30;;;;;;5088472;28;20392;-65
2022/11/06 10:56:08;;;;;;;;;;;14.80;63.30;;;;;;5088597;28;19975;-65
2022/11/06 10:58:34;;;;;;;;;;;14.80;63.30;;;;;;5088158;28;20012;-64
2022/11/06 11:01:04;;;;;;;;;;;14.80;63.30;;;;;;5089699;28;20007;-66
2022/11/06 11:03:33;;;;;;;;;;;14.80;63.30;;;;;;5088338;28;19920;-65
2022/11/06 11:05:59;;;;;;;;;;;14.80;63.30;;;;;;5088534;28;19920;-65
2022/11/06 11:08:33;;;;;;;;;;;14.80;63.30;;;;;;5089400;28;19921;-65
2022/11/06 11:11:01;;;;;;;;;;;14.80;63.20;;;;;;5088454;28;19920;-65
2022/11/06 11:13:27;;;;;;;;;;;14.80;63.30;;;;;;5088489;28;19920;-64
2022/11/06 11:15:52;;;;;;;;;;;14.80;63.30;;;;;;5089334;28;19920;-65
2022/11/06 11:18:21;;;;;;;;;;;14.80;63.30;;;;;;5087988;28;20295;-65
2022/11/06 11:20:51;;;;;;;;;;;14.90;63.40;;;;;;5088194;28;19921;-65
2022/11/06 11:23:21;;;;;;;;;;;14.90;63.30;;;;;;5087930;28;20201;-65
2022/11/06 11:25:48;;;;;;;;;;;14.90;63.40;;;;;;5089252;28;19939;-65
2022/11/06 11:28:30;;;;;;;;;;;14.90;63.40;;;;;;5089280;28;20033;-64
2022/11/06 11:31:03;;;;;;;;;;;14.90;63.40;;;;;;5067430;28;20009;-65
2022/11/06 11:33:28;;;;;;;;;;;14.90;63.40;;;;;;5068720;28;19921;-65
2022/11/06 11:35:54;;;;;;;;;;;14.90;63.40;;;;;;5067617;28;19927;-65
2022/11/06 11:38:21;;;;;;;;;;;14.90;63.50;;;;;;5069057;28;20287;-65
2022/11/06 11:40:47;;;;;;;;;;;14.90;63.50;;;;;;5067623;28;19920;-64
2022/11/06 11:43:21;;;;;;;;;;;14.90;63.40;;;;;;5067151;28;20395;-65
2022/11/06 11:48:54;;;;;;;;;;;14.90;63.40;;;;;;5129247;27;1872228;-64
2022/11/06 11:54:22;;;;;;;;;;;14.90;63.40;;;;;;5110530;27;19912;-64
2022/11/06 11:59:29;;;;;;;;;;;14.90;63.40;;;;;;5089951;28;19913;-66
2022/11/06 12:01:56;;;;;;;;;;;15.00;63.40;;;;;;5088714;28;19966;-64
2022/11/06 12:04:26;;;;;;;;;;;14.90;63.50;;;;;;5089882;28;19944;-64
2022/11/06 12:06:53;;;;;;;;;;;14.90;63.40;;;;;;5088721;28;19921;-64
2022/11/06 12:09:19;;;;;;;;;;;14.90;63.40;;;;;;5088403;28;19926;-64
2022/11/06 12:11:45;;;;;;;;;;;14.90;63.40;;;;;;5089736;28;20015;-64
2022/11/06 12:17:15;;;;;;;;;;;14.90;63.40;;;;;;5110208;27;19912;-65
2022/11/06 12:19:43;;;;;;;;;;;14.90;63.40;;;;;;5109150;28;19920;-64
2022/11/06 12:22:13;;;;;;;;;;;14.90;63.40;;;;;;5109098;28;19920;-64
2022/11/06 12:24:42;;;;;;;;;;;14.90;63.40;;;;;;5143172;27;19920;-64
2022/11/06 12:27:14;;;;;;;;;;;14.90;63.40;;;;;;5108759;28;19931;-64
2022/11/06 12:29:42;;;;;;;;;;;14.90;63.40;;;;;;5108961;28;20295;-64
2022/11/06 12:32:28;;;;;;;;;;;14.90;63.40;;;;;;5108999;28;20383;-64
2022/11/06 12:35:05;;;;;;;;;;;14.90;63.40;;;;;;5108505;28;19928;-64
2022/11/06 12:40:29;;;;;;;;;;;14.90;63.40;;;;;;5129510;27;1864686;-64
2022/11/06 12:43:15;;;;;;;;;;;14.90;63.40;;;;;;5174387;27;19919;-64
2022/11/06 12:46:00;;;;;;;;;;;14.90;63.50;;;;;;5193177;27;20301;-64
2022/11/06 12:48:32;;;;;;;;;;;14.90;63.40;;;;;;5174336;27;19944;-64
2022/11/06 12:51:03;;;;;;;;;;;14.90;63.40;;;;;;5174334;27;20416;-64
2022/11/06 12:56:28;;;;;;;;;;;14.90;63.40;;;;;;5125526;27;1922031;-64
2022/11/06 12:58:59;;;;;;;;;;;14.90;63.40;;;;;;5174096;27;19926;-64
2022/11/06 13:07:18;;;;;;;;;;;14.90;63.50;;;;;;5109153;27;19944;-66
2022/11/06 13:09:53;;;;;;;;;;;14.90;63.40;;;;;;5108082;28;19951;-64
2022/11/06 13:12:23;;;;;;;;;;;14.90;63.50;;;;;;5108819;28;19926;-65
2022/11/06 13:14:56;;;;;;;;;;;14.90;63.50;;;;;;5108814;28;20154;-65
2022/11/06 13:17:26;;;;;;;;;;;14.90;63.50;;;;;;5110178;28;20367;-64
2022/11/06 13:19:54;;;;;;;;;;;14.90;63.50;;;;;;5108962;28;19920;-64
2022/11/06 13:22:23;;;;;;;;;;;14.90;63.50;;;;;;5109852;28;19924;-64
2022/11/06 13:27:37;;;;;;;;;;;14.90;63.40;;;;;;5127773;27;1859319;-64
2022/11/06 13:30:09;;;;;;;;;;;14.90;63.40;;;;;;5174616;27;20263;-64
2022/11/06 13:32:35;;;;;;;;;;;15.00;63.50;;;;;;5174630;27;19987;-64
2022/11/06 13:35:01;;;;;;;;;;;14.90;63.50;;;;;;5174365;27;19957;-64
2022/11/06 13:37:37;;;;;;;;;;;14.90;63.40;;;;;;5174578;27;19926;-64
2022/11/06 13:40:14;;;;;;;;;;;14.90;63.50;;;;;;5179191;27;19987;-64
2022/11/06 13:42:42;;;;;;;;;;;14.90;63.50;;;;;;5153667;27;19999;-64
2022/11/06 13:45:08;;;;;;;;;;;14.90;63.40;;;;;;5153381;27;19919;-64
2022/11/06 13:47:53;;;;;;;;;;;14.90;63.50;;;;;;5171839;27;20286;-64
2022/11/06 13:50:28;;;;;;;;;;;15.00;63.50;;;;;;5152254;27;19969;-64
2022/11/06 13:52:59;;;;;;;;;;;14.90;63.40;;;;;;5171740;27;19923;-64
2022/11/06 13:58:25;;;;;;;;;;;14.90;63.40;;;;;;5110748;27;19918;-63
2022/11/06 14:03:48;;;;;;;;;;;14.90;63.40;;;;;;5127549;27;1864827;-64
2022/11/06 14:08:55;;;;;;;;;;;15.00;63.50;;;;;;5110300;27;19912;-64
2022/11/06 14:11:25;;;;;;;;;;;14.90;63.40;;;;;;5075034;28;19920;-63
2022/11/06 14:13:56;;;;;;;;;;;15.00;63.50;;;;;;5108292;28;19926;-64
2022/11/06 14:19:02;;;;;;;;;;;14.90;63.40;;;;;;5128101;27;1859666;-63
2022/11/06 14:21:48;;;;;;;;;;;14.90;63.40;;;;;;5157025;27;19918;-64
2022/11/06 14:24:31;;;;;;;;;;;14.90;63.40;;;;;;5174294;27;19930;-66
2022/11/06 14:26:56;;;;;;;;;;;14.90;63.50;;;;;;5174329;27;20389;-64
2022/11/06 14:34:50;;;;;;;;;;;14.90;63.40;;;;;;5110448;27;19938;-63
2022/11/06 14:42:41;;;;;;;;;;;14.90;63.40;;;;;;5109922;27;19912;-64
2022/11/06 14:45:09;;;;;;;;;;;14.90;63.40;;;;;;5109223;28;19989;-64
2022/11/06 14:47:37;;;;;;;;;;;14.90;63.40;;;;;;5143121;27;19920;-66
2022/11/06 14:53:01;;;;;;;;;;;14.90;63.40;;;;;;5089938;28;19913;-63
2022/11/06 14:55:33;;;;;;;;;;;14.90;63.40;;;;;;5088471;28;19921;-63
2022/11/06 14:58:10;;;;;;;;;;;14.90;63.40;;;;;;5088867;28;20273;-64
2022/11/06 15:00:47;;;;;;;;;;;15.00;63.50;;;;;;5088858;28;19927;-63
2022/11/06 15:03:17;;;;;;;;;;;14.90;63.40;;;;;;5089465;28;20563;-64
2022/11/06 15:05:42;;;;;;;;;;;14.90;63.40;;;;;;5088586;28;20007;-63
2022/11/06 15:08:08;;;;;;;;;;;14.90;63.40;;;;;;5088243;28;20440;-64
2022/11/06 15:13:22;;;;;;;;;;;14.90;63.50;;;;;;5110272;27;19912;-63
2022/11/06 15:15:49;;;;;;;;;;;15.00;63.50;;;;;;5108973;28;19973;-64
2022/11/06 15:18:19;;;;;;;;;;;14.90;63.50;;;;;;5109151;28;19920;-64
2022/11/06 15:20:54;;;;;;;;;;;14.90;63.50;;;;;;5109241;28;19977;-64
2022/11/06 15:23:29;;;;;;;;;;;14.90;63.40;;;;;;5110055;28;19927;-64
2022/11/06 15:26:15;;;;;;;;;;;14.90;63.40;;;;;;5108724;28;19927;-64
2022/11/06 15:28:43;;;;;;;;;;;14.90;63.50;;;;;;5108862;28;19926;-63
2022/11/06 15:31:12;;;;;;;;;;;14.90;63.50;;;;;;5108633;28;20195;-64
2022/11/06 15:33:45;;;;;;;;;;;14.90;63.40;;;;;;5108816;28;20380;-64
2022/11/06 15:36:12;;;;;;;;;;;14.90;63.40;;;;;;5109002;28;19927;-64
2022/11/06 15:38:39;;;;;;;;;;;14.90;63.50;;;;;;5091530;28;19920;-65
2022/11/06 15:41:05;;;;;;;;;;;14.90;63.40;;;;;;5108802;28;19988;-64
2022/11/06 15:43:33;;;;;;;;;;;14.90;63.50;;;;;;5109696;28;19920;-64
2022/11/06 15:46:13;;;;;;;;;;;14.90;63.50;;;;;;5109558;28;19973;-64
2022/11/06 15:48:39;;;;;;;;;;;14.90;63.50;;;;;;5108829;28;19920;-64
2022/11/06 15:51:24;;;;;;;;;;;14.90;63.50;;;;;;5108168;28;19926;-66
2022/11/06 15:53:50;;;;;;;;;;;15.00;64.30;;;;;;5108071;28;19920;-65
2022/11/06 15:56:17;;;;;;;;;;;14.90;63.50;;;;;;5108092;28;19920;-64
2022/11/06 15:58:43;;;;;;;;;;;14.90;63.50;;;;;;5108531;28;19920;-64
2022/11/06 16:01:09;;;;;;;;;;;14.90;63.50;;;;;;5109398;28;20291;-64
2022/11/06 16:03:45;;;;;;;;;;;14.90;63.50;;;;;;5108163;28;19985;-65
2022/11/06 16:06:11;;;;;;;;;;;14.90;63.50;;;;;;5091273;28;20201;-64
2022/11/06 16:08:37;;;;;;;;;;;14.90;63.50;;;;;;5109325;28;19920;-64
2022/11/06 16:11:03;;;;;;;;;;;14.90;63.50;;;;;;5110158;28;20379;-64
2022/11/06 16:13:28;;;;;;;;;;;14.90;63.50;;;;;;5111224;28;19930;-65
2022/11/06 16:15:55;;;;;;;;;;;14.90;63.50;;;;;;5129534;27;20009;-65
2022/11/06 16:21:22;;;;;;;;;;;14.90;63.50;;;;;;5110022;27;19919;-67